sensor_id;sensor_type;location;lat;lon;timestamp;pressure;altitude;pressure_sealevel;temperature;humidity
22311;BME280;11323;49.610;11.016;2023-05-21T00:04:19;97902.59;;;19.82;59.17
22311;BME280;11323;49.610;11.016;2023-05-21T00:09:20;97896.50;;;19.82;58.84
22311;BME280;11323;49.610;11.016;2023-05-21T00:14:20;97894.06;;;19.80;59.01
22311;BME280;11323;49.610;11.016;2023-05-21T00:19:20;97888.78;;;19.80;59.27
22311;BME280;11323;49.610;11.016;2023-05-21T00:24:21;97877.38;;;19.80;58.91
22311;BME280;11323;49.610;11.016;2023-05-21T00:29:22;97880.25;;;19.78;59.38
22311;BME280;11323;49.610;11.016;2023-05-21T00:34:22;97877.38;;;19.80;59.41
22311;BME280;11323;49.610;11.016;2023-05-21T00:39:23;97871.28;;;19.79;59.33
22311;BME280;11323;49.610;11.016;2023-05-21T00:44:23;97872.91;;;19.80;59.29
22311;BME280;11323;49.610;11.016;2023-05-21T00:49:24;97874.97;;;19.78;59.11
22311;BME280;11323;49.610;11.016;2023-05-21T00:54:25;97864.38;;;19.78;59.02
22311;BME280;11323;49.610;11.016;2023-05-21T00:59:26;97865.41;;;19.77;59.33
22311;BME280;11323;49.610;11.016;2023-05-21T01:04:26;97870.91;;;19.75;59.11
22311;BME280;11323;49.610;11.016;2023-05-21T01:09:27;97861.34;;;19.74;59.13
22311;BME280;11323;49.610;11.016;2023-05-21T01:14:28;97858.50;;;19.76;59.23
22311;BME280;11323;49.610;11.016;2023-05-21T01:19:30;97856.06;;;19.74;59.15
22311;BME280;11323;49.610;11.016;2023-05-21T01:24:32;97859.28;;;19.76;59.40
22311;BME280;11323;49.610;11.016;2023-05-21T01:29:32;97868.03;;;19.77;59.61
22311;BME280;11323;49.610;11.016;2023-05-21T01:40:00;97854.22;;;19.75;59.29
22311;BME280;11323;49.610;11.016;2023-05-21T01:45:04;97856.63;;;19.76;59.53
22311;BME280;11323;49.610;11.016;2023-05-21T01:50:07;97858.72;;;19.74;59.42
22311;BME280;11323;49.610;11.016;2023-05-21T01:55:08;97853.41;;;19.74;59.82
22311;BME280;11323;49.610;11.016;2023-05-21T02:00:09;97854.22;;;19.75;59.33
22311;BME280;11323;49.610;11.016;2023-05-21T02:05:16;97853.19;;;19.76;59.82
22311;BME280;11323;49.610;11.016;2023-05-21T02:10:16;97839.59;;;19.72;59.74
22311;BME280;11323;49.610;11.016;2023-05-21T02:15:17;97848.94;;;19.75;60.14
22311;BME280;11323;49.610;11.016;2023-05-21T02:20:19;97845.50;;;19.74;59.93
22311;BME280;11323;49.610;11.016;2023-05-21T02:25:21;97848.94;;;19.75;59.81
22311;BME280;11323;49.610;11.016;2023-05-21T02:30:21;97839.19;;;19.75;60.22
22311;BME280;11323;49.610;11.016;2023-05-21T02:35:22;97834.09;;;19.74;60.20
22311;BME280;11323;49.610;11.016;2023-05-21T02:40:22;97836.72;;;19.74;59.72
22311;BME280;11323;49.610;11.016;2023-05-21T02:45:24;97842.84;;;19.74;59.90
22311;BME280;11323;49.610;11.016;2023-05-21T02:50:25;97842.03;;;19.74;60.07
22311;BME280;11323;49.610;11.016;2023-05-21T02:55:32;97829.22;;;19.71;60.01
22311;BME280;11323;49.610;11.016;2023-05-21T03:00:32;97841.41;;;19.72;59.66
22311;BME280;11323;49.610;11.016;2023-05-21T03:05:34;97835.75;;;19.68;60.05
22311;BME280;11323;49.610;11.016;2023-05-21T03:10:34;97830.25;;;19.70;59.58
22311;BME280;11323;49.610;11.016;2023-05-21T03:15:34;97828.63;;;19.69;59.73
22311;BME280;11323;49.610;11.016;2023-05-21T03:20:35;97829.84;;;19.66;59.76
22311;BME280;11323;49.610;11.016;2023-05-21T03:25:36;97839.22;;;19.69;59.77
22311;BME280;11323;49.610;11.016;2023-05-21T03:30:36;97838.59;;;19.67;60.00
22311;BME280;11323;49.610;11.016;2023-05-21T03:35:56;97829.84;;;19.66;59.43
22311;BME280;11323;49.610;11.016;2023-05-21T03:40:58;97838.00;;;19.65;59.51
22311;BME280;11323;49.610;11.016;2023-05-21T03:45:59;97842.50;;;19.64;59.58
22311;BME280;11323;49.610;11.016;2023-05-21T03:51:18;97845.94;;;19.65;59.59
22311;BME280;11323;49.610;11.016;2023-05-21T03:56:19;97835.34;;;19.65;59.33
22311;BME280;11323;49.610;11.016;2023-05-21T04:01:21;97853.06;;;19.64;60.04
22311;BME280;11323;49.610;11.016;2023-05-21T04:06:25;97848.78;;;19.63;59.58
22311;BME280;11323;49.610;11.016;2023-05-21T04:11:25;97853.84;;;19.65;59.41
22311;BME280;11323;49.610;11.016;2023-05-21T04:16:26;97855.72;;;19.64;59.46
22311;BME280;11323;49.610;11.016;2023-05-21T04:21:26;97852.22;;;19.64;59.38
22311;BME280;11323;49.610;11.016;2023-05-21T04:26:27;97859.16;;;19.65;59.98
22311;BME280;11323;49.610;11.016;2023-05-21T04:31:30;97860.16;;;19.64;60.10
22311;BME280;11323;49.610;11.016;2023-05-21T04:36:31;97857.53;;;19.64;59.50
22311;BME280;11323;49.610;11.016;2023-05-21T04:41:32;97865.22;;;19.65;59.84
22311;BME280;11323;49.610;11.016;2023-05-21T04:46:33;97863.63;;;19.64;59.58
22311;BME280;11323;49.610;11.016;2023-05-21T04:51:34;97869.72;;;19.65;59.99
22311;BME280;11323;49.610;11.016;2023-05-21T04:56:36;97872.38;;;19.65;59.85
22311;BME280;11323;49.610;11.016;2023-05-21T05:01:38;97869.72;;;19.65;59.93
22311;BME280;11323;49.610;11.016;2023-05-21T05:06:38;97865.22;;;19.65;60.13
22311;BME280;11323;49.610;11.016;2023-05-21T05:11:39;97871.94;;;19.68;60.01
22311;BME280;11323;49.610;11.016;2023-05-21T05:16:39;97864.81;;;19.68;59.66
22311;BME280;11323;49.610;11.016;2023-05-21T05:21:40;97870.94;;;19.69;60.13
22311;BME280;11323;49.610;11.016;2023-05-21T05:26:41;97872.56;;;19.70;60.24
22311;BME280;11323;49.610;11.016;2023-05-21T05:31:41;97880.28;;;19.71;60.01
22311;BME280;11323;49.610;11.016;2023-05-21T05:36:41;97870.50;;;19.72;60.13
22311;BME280;11323;49.610;11.016;2023-05-21T05:41:42;97875.78;;;19.72;59.92
22311;BME280;11323;49.610;11.016;2023-05-21T05:46:42;97873.13;;;19.72;59.88
22311;BME280;11323;49.610;11.016;2023-05-21T05:51:43;97864.19;;;19.73;60.01
22311;BME280;11323;49.610;11.016;2023-05-21T05:56:44;97865.81;;;19.74;59.71
22311;BME280;11323;49.610;11.016;2023-05-21T06:01:44;97864.53;;;19.83;59.85
22311;BME280;11323;49.610;11.016;2023-05-21T06:06:45;97865.16;;;19.85;60.00
22311;BME280;11323;49.610;11.016;2023-05-21T06:11:46;97864.34;;;19.85;60.09
22311;BME280;11323;49.610;11.016;2023-05-21T06:16:47;97858.88;;;19.86;59.86
22311;BME280;11323;49.610;11.016;2023-05-21T06:21:47;97866.41;;;19.89;59.90
22311;BME280;11323;49.610;11.016;2023-05-21T06:26:48;97860.28;;;19.89;59.79
22311;BME280;11323;49.610;11.016;2023-05-21T06:31:48;97861.09;;;19.89;59.85
22311;BME280;11323;49.610;11.016;2023-05-21T06:36:49;97858.25;;;19.91;60.03
22311;BME280;11323;49.610;11.016;2023-05-21T06:41:51;97859.06;;;19.92;60.01
22311;BME280;11323;49.610;11.016;2023-05-21T06:47:12;97859.06;;;19.92;59.49
22311;BME280;11323;49.610;11.016;2023-05-21T06:52:12;97864.34;;;19.92;59.92
22311;BME280;11323;49.610;11.016;2023-05-21T06:57:14;97862.72;;;19.90;59.58
22311;BME280;11323;49.610;11.016;2023-05-21T07:02:16;97858.25;;;19.91;60.04
22311;BME280;11323;49.610;11.016;2023-05-21T07:07:16;97857.44;;;19.90;59.57
22311;BME280;11323;49.610;11.016;2023-05-21T07:12:17;97871.28;;;19.93;59.83
22311;BME280;11323;49.610;11.016;2023-05-21T07:17:17;97875.50;;;19.94;59.86
22311;BME280;11323;49.610;11.016;2023-05-21T07:22:18;97876.13;;;19.96;60.15
22311;BME280;11323;49.610;11.016;2023-05-21T07:27:18;97875.50;;;19.94;60.50
22311;BME280;11323;49.610;11.016;2023-05-21T07:32:19;97872.88;;;19.94;60.22
22311;BME280;11323;49.610;11.016;2023-05-21T07:37:20;97866.56;;;19.95;60.12
22311;BME280;11323;49.610;11.016;2023-05-21T07:42:20;97877.34;;;19.93;59.80
22311;BME280;11323;49.610;11.016;2023-05-21T07:47:21;97872.88;;;19.94;59.96
22311;BME280;11323;49.610;11.016;2023-05-21T07:52:23;97870.22;;;19.94;59.42
22311;BME280;11323;49.610;11.016;2023-05-21T07:57:24;97874.72;;;19.93;59.29
22311;BME280;11323;49.610;11.016;2023-05-21T08:02:31;97878.16;;;19.94;59.61
22311;BME280;11323;49.610;11.016;2023-05-21T08:07:31;97872.88;;;19.94;59.73
22311;BME280;11323;49.610;11.016;2023-05-21T08:12:32;97877.34;;;19.93;59.52
22311;BME280;11323;49.610;11.016;2023-05-21T08:17:33;97869.66;;;19.92;59.80
22311;BME280;11323;49.610;11.016;2023-05-21T08:22:33;97876.56;;;19.93;59.10
22311;BME280;11323;49.610;11.016;2023-05-21T08:27:34;97874.94;;;19.92;59.47
22311;BME280;11323;49.610;11.016;2023-05-21T08:32:34;97871.28;;;19.93;59.04
22311;BME280;11323;49.610;11.016;2023-05-21T08:37:35;97868.78;;;19.98;59.01
22311;BME280;11323;49.610;11.016;2023-05-21T08:42:45;97882.63;;;20.00;59.50
22311;BME280;11323;49.610;11.016;2023-05-21T08:47:59;97873.66;;;20.01;59.70
22311;BME280;11323;49.610;11.016;2023-05-21T08:53:03;97870.78;;;20.02;59.55
22311;BME280;11323;49.610;11.016;2023-05-21T08:58:04;97868.75;;;20.04;59.34
22311;BME280;11323;49.610;11.016;2023-05-21T09:03:05;97867.50;;;20.07;59.80
22311;BME280;11323;49.610;11.016;2023-05-21T09:08:17;97860.59;;;20.06;59.50
22311;BME280;11323;49.610;11.016;2023-05-21T09:13:32;97863.47;;;20.04;59.60
22311;BME280;11323;49.610;11.016;2023-05-21T09:18:37;97869.56;;;20.05;59.23
22311;BME280;11323;49.610;11.016;2023-05-21T09:23:55;97866.91;;;20.05;59.40
22311;BME280;11323;49.610;11.016;2023-05-21T09:28:58;97871.19;;;20.06;58.99
22311;BME280;11323;49.610;11.016;2023-05-21T09:33:59;97869.56;;;20.05;59.18
22311;BME280;11323;49.610;11.016;2023-05-21T09:39:00;97874.84;;;20.05;59.14
22311;BME280;11323;49.610;11.016;2023-05-21T09:44:01;97863.47;;;20.04;59.10
22311;BME280;11323;49.610;11.016;2023-05-21T09:49:02;97862.22;;;20.07;59.26
22311;BME280;11323;49.610;11.016;2023-05-21T09:54:02;97878.09;;;20.07;58.92
22311;BME280;11323;49.610;11.016;2023-05-21T09:59:03;97873.81;;;20.06;58.73
22311;BME280;11323;49.610;11.016;2023-05-21T10:04:06;97878.09;;;20.07;58.90
22311;BME280;11323;49.610;11.016;2023-05-21T10:09:09;97872.00;;;20.06;58.79
22311;BME280;11323;49.610;11.016;2023-05-21T10:14:19;97875.44;;;20.07;59.47
22311;BME280;11323;49.610;11.016;2023-05-21T10:19:21;97872.19;;;20.05;59.23
22311;BME280;11323;49.610;11.016;2023-05-21T10:24:22;97865.88;;;20.06;59.00
22311;BME280;11323;49.610;11.016;2023-05-21T10:29:24;97863.03;;;20.08;59.34
22311;BME280;11323;49.610;11.016;2023-05-21T10:34:25;97860.19;;;20.09;59.23
22311;BME280;11323;49.610;11.016;2023-05-21T10:39:28;97849.59;;;20.09;58.65
22311;BME280;11323;49.610;11.016;2023-05-21T10:55:12;97833.31;;;20.12;59.42
22311;BME280;11323;49.610;11.016;2023-05-21T11:00:17;97831.25;;;20.14;59.57
22311;BME280;11323;49.610;11.016;2023-05-21T11:06:01;97822.06;;;20.17;60.02
22311;BME280;11323;49.610;11.016;2023-05-21T11:10:59;97821.84;;;20.18;60.01
22311;BME280;11323;49.610;11.016;2023-05-21T11:21:09;97820.41;;;20.23;60.55
22311;BME280;11323;49.610;11.016;2023-05-21T11:26:09;97816.75;;;20.24;60.19
22311;BME280;11323;49.610;11.016;2023-05-21T11:31:26;97814.09;;;20.24;60.19
22311;BME280;11323;49.610;11.016;2023-05-21T11:36:26;97814.09;;;20.24;59.93
22311;BME280;11323;49.610;11.016;2023-05-21T11:41:27;97799.41;;;20.28;59.66
22311;BME280;11323;49.610;11.016;2023-05-21T11:46:27;97801.03;;;20.29;59.84
22311;BME280;11323;49.610;11.016;2023-05-21T11:51:28;97804.63;;;20.34;59.88
22311;BME280;11323;49.610;11.016;2023-05-21T11:56:31;97794.44;;;20.38;60.30
22311;BME280;11323;49.610;11.016;2023-05-21T12:01:32;97800.13;;;20.42;60.74
22311;BME280;11323;49.610;11.016;2023-05-21T12:06:32;97797.25;;;20.43;60.81
22311;BME280;11323;49.610;11.016;2023-05-21T12:11:33;97782.63;;;20.41;60.42
22311;BME280;11323;49.610;11.016;2023-05-21T12:16:34;97789.53;;;20.42;60.11
22311;BME280;11323;49.610;11.016;2023-05-21T12:21:34;97793.56;;;20.44;60.13
22311;BME280;11323;49.610;11.016;2023-05-21T12:26:35;97782.09;;;20.50;60.56
22311;BME280;11323;49.610;11.016;2023-05-21T12:31:46;97781.31;;;20.50;60.57
22311;BME280;11323;49.610;11.016;2023-05-21T12:36:48;97790.28;;;20.49;59.88
22311;BME280;11323;49.610;11.016;2023-05-21T12:41:53;97784.97;;;20.49;59.99
22311;BME280;11323;49.610;11.016;2023-05-21T12:46:53;97779.25;;;20.52;59.73
22311;BME280;11323;49.610;11.016;2023-05-21T12:51:55;97776.97;;;20.56;59.54
22311;BME280;11323;49.610;11.016;2023-05-21T12:56:56;97780.22;;;20.58;59.75
22311;BME280;11323;49.610;11.016;2023-05-21T13:01:56;97782.06;;;20.57;59.71
22311;BME280;11323;49.610;11.016;2023-05-21T13:06:56;97771.25;;;20.59;59.67
22311;BME280;11323;49.610;11.016;2023-05-21T13:11:57;97771.84;;;20.61;59.66
22311;BME280;11323;49.610;11.016;2023-05-21T13:16:57;97768.16;;;20.62;60.08
22311;BME280;11323;49.610;11.016;2023-05-21T13:21:57;97765.69;;;20.67;59.68
22311;BME280;11323;49.610;11.016;2023-05-21T13:26:58;97758.34;;;20.69;59.97
22311;BME280;11323;49.610;11.016;2023-05-21T13:31:58;97772.16;;;20.71;59.36
22311;BME280;11323;49.610;11.016;2023-05-21T13:36:59;97764.00;;;20.73;59.71
22311;BME280;11323;49.610;11.016;2023-05-21T13:41:59;97764.00;;;20.73;59.66
22311;BME280;11323;49.610;11.016;2023-05-21T13:47:09;97764.78;;;20.73;59.94
22311;BME280;11323;49.610;11.016;2023-05-21T13:52:11;97771.94;;;20.73;59.92
22311;BME280;11323;49.610;11.016;2023-05-21T13:57:11;97769.53;;;20.71;59.85
22311;BME280;11323;49.610;11.016;2023-05-21T14:02:12;97766.88;;;20.71;59.51
22311;BME280;11323;49.610;11.016;2023-05-21T14:07:13;97768.06;;;20.75;59.90
22311;BME280;11323;49.610;11.016;2023-05-21T14:12:13;97764.38;;;20.76;59.91
22311;BME280;11323;49.610;11.016;2023-05-21T14:17:13;97771.53;;;20.76;59.69
22311;BME280;11323;49.610;11.016;2023-05-21T14:22:14;97764.78;;;20.73;60.61
22311;BME280;11323;49.610;11.016;2023-05-21T14:27:14;97763.38;;;20.77;60.65
22311;BME280;11323;49.610;11.016;2023-05-21T14:32:15;97762.34;;;20.78;60.67
22311;BME280;11323;49.610;11.016;2023-05-21T14:37:17;97755.59;;;20.82;60.60
22311;BME280;11323;49.610;11.016;2023-05-21T14:42:17;97761.44;;;20.85;61.27
22311;BME280;11323;49.610;11.016;2023-05-21T14:47:18;97754.94;;;20.87;61.16
22311;BME280;11323;49.610;11.016;2023-05-21T14:52:18;97752.63;;;20.91;62.03
22311;BME280;11323;49.610;11.016;2023-05-21T14:57:18;97759.75;;;20.90;61.91
22311;BME280;11323;49.610;11.016;2023-05-21T15:02:20;97756.91;;;20.92;61.51
22311;BME280;11323;49.610;11.016;2023-05-21T15:07:21;97756.91;;;20.92;61.00
22311;BME280;11323;49.610;11.016;2023-05-21T15:12:21;97763.81;;;20.93;61.18
22311;BME280;11323;49.610;11.016;2023-05-21T15:17:21;97755.88;;;20.93;60.67
22311;BME280;11323;49.610;11.016;2023-05-21T15:22:22;97751.16;;;20.95;60.85
22311;BME280;11323;49.610;11.016;2023-05-21T15:27:23;97745.06;;;20.94;60.65
22311;BME280;11323;49.610;11.016;2023-05-21T15:32:24;97754.97;;;20.99;60.29
22311;BME280;11323;49.610;11.016;2023-05-21T15:37:24;97743.38;;;21.00;60.42
22311;BME280;11323;49.610;11.016;2023-05-21T15:42:25;97746.00;;;21.00;60.88
22311;BME280;11323;49.610;11.016;2023-05-21T15:47:30;97752.94;;;21.01;60.40
22311;BME280;11323;49.610;11.016;2023-05-21T15:52:30;97735.78;;;21.04;60.53
22311;BME280;11323;49.610;11.016;2023-05-21T15:57:30;97739.25;;;21.04;60.29
22311;BME280;11323;49.610;11.016;2023-05-21T16:02:31;97733.72;;;21.06;60.53
22311;BME280;11323;49.610;11.016;2023-05-21T16:07:31;97733.47;;;21.07;60.36
22311;BME280;11323;49.610;11.016;2023-05-21T16:12:31;97724.50;;;21.08;60.45
22311;BME280;11323;49.610;11.016;2023-05-21T16:17:32;97724.50;;;21.08;60.36
22311;BME280;11323;49.610;11.016;2023-05-21T16:22:32;97727.75;;;21.10;60.56
22311;BME280;11323;49.610;11.016;2023-05-21T16:27:32;97726.13;;;21.09;60.45
22311;BME280;11323;49.610;11.016;2023-05-21T16:32:34;97725.53;;;21.07;60.24
22311;BME280;11323;49.610;11.016;2023-05-21T16:37:34;97721.06;;;21.08;60.38
22311;BME280;11323;49.610;11.016;2023-05-21T16:42:34;97715.75;;;21.08;60.43
22311;BME280;11323;49.610;11.016;2023-05-21T16:47:35;97716.56;;;21.08;60.20
22311;BME280;11323;49.610;11.016;2023-05-21T16:52:35;97724.50;;;21.08;60.59
22311;BME280;11323;49.610;11.016;2023-05-21T16:57:36;97719.22;;;21.08;60.15
22311;BME280;11323;49.610;11.016;2023-05-21T17:02:37;97727.16;;;21.08;60.37
22311;BME280;11323;49.610;11.016;2023-05-21T17:07:37;97719.22;;;21.08;59.94
22311;BME280;11323;49.610;11.016;2023-05-21T17:12:38;97719.38;;;21.13;60.57
22311;BME280;11323;49.610;11.016;2023-05-21T17:17:38;97729.28;;;21.18;60.57
22311;BME280;11323;49.610;11.016;2023-05-21T17:22:39;97723.16;;;21.18;60.44
22311;BME280;11323;49.610;11.016;2023-05-21T17:27:39;97723.56;;;21.21;60.54
22311;BME280;11323;49.610;11.016;2023-05-21T17:32:39;97735.53;;;21.24;60.62
22311;BME280;11323;49.610;11.016;2023-05-21T17:37:40;97743.84;;;21.27;60.88
22311;BME280;11323;49.610;11.016;2023-05-21T17:42:40;97747.88;;;21.30;60.49
22311;BME280;11323;49.610;11.016;2023-05-21T17:47:41;97749.75;;;21.29;60.54
22311;BME280;11323;49.610;11.016;2023-05-21T17:52:41;97752.75;;;21.33;60.74
22311;BME280;11323;49.610;11.016;2023-05-21T17:57:41;97749.06;;;21.34;60.27
22311;BME280;11323;49.610;11.016;2023-05-21T18:02:42;97747.88;;;21.30;60.49
22311;BME280;11323;49.610;11.016;2023-05-21T18:07:42;97754.44;;;21.27;60.34
22311;BME280;11323;49.610;11.016;2023-05-21T18:12:43;97755.25;;;21.28;60.42
22311;BME280;11323;49.610;11.016;2023-05-21T18:17:45;97747.75;;;21.25;60.08
22311;BME280;11323;49.610;11.016;2023-05-21T18:22:46;97757.69;;;21.29;60.23
22311;BME280;11323;49.610;11.016;2023-05-21T18:27:46;97769.25;;;21.35;60.34
22311;BME280;11323;49.610;11.016;2023-05-21T18:32:47;97756.00;;;21.35;59.96
22311;BME280;11323;49.610;11.016;2023-05-21T18:37:47;97764.97;;;21.34;59.89
22311;BME280;11323;49.610;11.016;2023-05-21T18:42:47;97766.59;;;21.35;59.91
22311;BME280;11323;49.610;11.016;2023-05-21T18:47:48;97768.22;;;21.36;60.03
22311;BME280;11323;49.610;11.016;2023-05-21T18:52:51;97770.03;;;21.36;60.22
22311;BME280;11323;49.610;11.016;2023-05-21T18:57:55;97774.53;;;21.35;60.04
22311;BME280;11323;49.610;11.016;2023-05-21T19:02:55;97784.13;;;21.36;59.58
22311;BME280;11323;49.610;11.016;2023-05-21T19:07:56;97794.72;;;21.36;59.92
22311;BME280;11323;49.610;11.016;2023-05-21T19:12:56;97792.06;;;21.36;59.99
22311;BME280;11323;49.610;11.016;2023-05-21T19:17:56;97799.78;;;21.38;59.82
22311;BME280;11323;49.610;11.016;2023-05-21T19:22:57;97802.22;;;21.39;60.05
22311;BME280;11323;49.610;11.016;2023-05-21T19:27:57;97804.41;;;21.42;59.58
22311;BME280;11323;49.610;11.016;2023-05-21T19:32:59;97815.84;;;21.43;59.75
22311;BME280;11323;49.610;11.016;2023-05-21T19:38:00;97815.03;;;21.42;59.97
22311;BME280;11323;49.610;11.016;2023-05-21T19:43:00;97814.00;;;21.43;59.82
22311;BME280;11323;49.610;11.016;2023-05-21T19:48:01;97811.34;;;21.43;60.06
22311;BME280;11323;49.610;11.016;2023-05-21T19:53:02;97814.00;;;21.43;59.66
22311;BME280;11323;49.610;11.016;2023-05-21T19:58:02;97816.66;;;21.43;59.52
22311;BME280;11323;49.610;11.016;2023-05-21T20:03:03;97814.72;;;21.51;59.87
22311;BME280;11323;49.610;11.016;2023-05-21T20:08:04;97814.59;;;21.45;59.94
22311;BME280;11323;49.610;11.016;2023-05-21T20:13:04;97815.25;;;21.41;57.17
22311;BME280;11323;49.610;11.016;2023-05-21T20:18:04;97821.16;;;21.43;55.71
22311;BME280;11323;49.610;11.016;2023-05-21T20:23:05;97813.41;;;21.41;55.27
22311;BME280;11323;49.610;11.016;2023-05-21T20:28:07;97823.88;;;21.36;54.46
22311;BME280;11323;49.610;11.016;2023-05-21T20:33:07;97819.59;;;21.35;54.45
22311;BME280;11323;49.610;11.016;2023-05-21T20:38:07;97819.59;;;21.35;55.28
22311;BME280;11323;49.610;11.016;2023-05-21T20:43:08;97818.41;;;21.31;54.65
22311;BME280;11323;49.610;11.016;2023-05-21T20:48:11;97823.72;;;21.31;54.90
22311;BME280;11323;49.610;11.016;2023-05-21T20:53:14;97823.34;;;21.27;55.47
22311;BME280;11323;49.610;11.016;2023-05-21T20:58:14;97828.88;;;21.26;55.58
22311;BME280;11323;49.610;11.016;2023-05-21T21:03:16;97832.34;;;21.26;55.47
22311;BME280;11323;49.610;11.016;2023-05-21T21:08:17;97830.34;;;21.22;54.84
22311;BME280;11323;49.610;11.016;2023-05-21T21:13:17;97833.22;;;21.20;54.78
22311;BME280;11323;49.610;11.016;2023-05-21T21:18:17;97839.31;;;21.21;55.25
22311;BME280;11323;49.610;11.016;2023-05-21T21:23:18;97839.31;;;21.21;55.17
22311;BME280;11323;49.610;11.016;2023-05-21T21:28:19;97846.25;;;21.22;55.17
22311;BME280;11323;49.610;11.016;2023-05-21T21:33:19;97848.78;;;21.17;55.04
22311;BME280;11323;49.610;11.016;2023-05-21T21:38:23;97850.81;;;21.14;53.54
22311;BME280;11323;49.610;11.016;2023-05-21T21:43:24;97852.72;;;21.07;53.45
22311;BME280;11323;49.610;11.016;2023-05-21T21:48:24;97852.78;;;21.01;53.87
22311;BME280;11323;49.610;11.016;2023-05-21T21:53:24;97847.69;;;20.99;53.54
22311;BME280;11323;49.610;11.016;2023-05-21T21:58:25;97839.63;;;20.94;53.82
22311;BME280;11323;49.610;11.016;2023-05-21T22:03:26;97844.97;;;20.87;53.57
22311;BME280;11323;49.610;11.016;2023-05-21T22:08:26;97833.97;;;20.83;53.49
22311;BME280;11323;49.610;11.016;2023-05-21T22:13:27;97842.97;;;20.82;52.89
22311;BME280;11323;49.610;11.016;2023-05-21T22:18:30;97839.56;;;20.75;53.01
22311;BME280;11323;49.610;11.016;2023-05-21T22:23:30;97851.19;;;20.67;52.97
22311;BME280;11323;49.610;11.016;2023-05-21T22:28:31;97841.38;;;20.49;53.89
22311;BME280;11323;49.610;11.016;2023-05-21T22:33:31;97838.28;;;20.52;54.15
22311;BME280;11323;49.610;11.016;2023-05-21T22:38:32;97846.66;;;20.49;54.12
22311;BME280;11323;49.610;11.016;2023-05-21T22:43:32;97837.88;;;20.56;54.24
22311;BME280;11323;49.610;11.016;2023-05-21T22:48:33;97841.38;;;20.49;54.20
22311;BME280;11323;49.610;11.016;2023-05-21T22:53:36;97847.13;;;20.46;53.90
22311;BME280;11323;49.610;11.016;2023-05-21T22:58:36;97851.97;;;20.49;52.96
22311;BME280;11323;49.610;11.016;2023-05-21T23:03:37;97850.59;;;20.40;53.63
22311;BME280;11323;49.610;11.016;2023-05-21T23:08:37;97848.19;;;20.39;53.94
22311;BME280;11323;49.610;11.016;2023-05-21T23:13:37;97847.16;;;20.40;53.68
22311;BME280;11323;49.610;11.016;2023-05-21T23:18:38;97842.94;;;20.32;53.54
22311;BME280;11323;49.610;11.016;2023-05-21T23:23:40;97845.88;;;20.17;54.30
22311;BME280;11323;49.610;11.016;2023-05-21T23:28:40;97843.88;;;20.12;54.98
22311;BME280;11323;49.610;11.016;2023-05-21T23:33:40;97847.56;;;20.11;55.53
22311;BME280;11323;49.610;11.016;2023-05-21T23:38:41;97849.59;;;20.09;55.71
22311;BME280;11323;49.610;11.016;2023-05-21T23:43:41;97847.97;;;20.08;56.04
22311;BME280;11323;49.610;11.016;2023-05-21T23:48:41;97847.66;;;19.91;56.64
22311;BME280;11323;49.610;11.016;2023-05-21T23:53:42;97849.34;;;19.72;57.24
22311;BME280;11323;49.610;11.016;2023-05-21T23:58:42;97844.91;;;19.66;57.60
